sensor_id;sensor_type;location;lat;lon;timestamp;temperature;humidity
37702;DHT22;23548;51.196;6.838;2023-06-04T00:00:48;14.60;55.20
37702;DHT22;23548;51.196;6.838;2023-06-04T00:03:14;14.50;55.10
37702;DHT22;23548;51.196;6.838;2023-06-04T00:05:40;14.50;55.30
37702;DHT22;23548;51.196;6.838;2023-06-04T00:08:05;14.50;55.60
37702;DHT22;23548;51.196;6.838;2023-06-04T00:10:31;14.40;55.90
37702;DHT22;23548;51.196;6.838;2023-06-04T00:12:59;14.40;56.20
37702;DHT22;23548;51.196;6.838;2023-06-04T00:15:25;14.30;56.50
37702;DHT22;23548;51.196;6.838;2023-06-04T00:17:51;14.30;56.80
37702;DHT22;23548;51.196;6.838;2023-06-04T00:20:18;14.20;56.80
37702;DHT22;23548;51.196;6.838;2023-06-04T00:22:44;14.20;57.20
37702;DHT22;23548;51.196;6.838;2023-06-04T00:25:10;14.10;57.40
37702;DHT22;23548;51.196;6.838;2023-06-04T00:27:36;14.10;56.80
37702;DHT22;23548;51.196;6.838;2023-06-04T00:30:03;14.10;56.90
37702;DHT22;23548;51.196;6.838;2023-06-04T00:32:29;14.10;57.10
37702;DHT22;23548;51.196;6.838;2023-06-04T00:34:55;14.10;56.90
37702;DHT22;23548;51.196;6.838;2023-06-04T00:37:23;14.00;56.90
37702;DHT22;23548;51.196;6.838;2023-06-04T00:39:50;14.10;57.30
37702;DHT22;23548;51.196;6.838;2023-06-04T00:42:16;14.00;56.90
37702;DHT22;23548;51.196;6.838;2023-06-04T00:44:42;14.00;56.90
37702;DHT22;23548;51.196;6.838;2023-06-04T00:47:15;13.90;57.30
37702;DHT22;23548;51.196;6.838;2023-06-04T00:49:42;13.80;57.50
37702;DHT22;23548;51.196;6.838;2023-06-04T00:52:09;13.80;57.60
37702;DHT22;23548;51.196;6.838;2023-06-04T00:54:35;13.80;57.30
37702;DHT22;23548;51.196;6.838;2023-06-04T00:57:01;13.70;57.10
37702;DHT22;23548;51.196;6.838;2023-06-04T00:59:29;13.80;57.20
37702;DHT22;23548;51.196;6.838;2023-06-04T01:02:11;13.80;57.20
37702;DHT22;23548;51.196;6.838;2023-06-04T01:07:19;13.80;57.60
37702;DHT22;23548;51.196;6.838;2023-06-04T01:09:45;13.70;57.90
37702;DHT22;23548;51.196;6.838;2023-06-04T01:12:11;13.70;57.50
37702;DHT22;23548;51.196;6.838;2023-06-04T01:14:37;13.60;57.50
37702;DHT22;23548;51.196;6.838;2023-06-04T01:17:13;13.70;57.60
37702;DHT22;23548;51.196;6.838;2023-06-04T01:25:34;13.50;58.60
37702;DHT22;23548;51.196;6.838;2023-06-04T01:28:05;13.60;58.60
37702;DHT22;23548;51.196;6.838;2023-06-04T01:30:33;13.60;58.80
37702;DHT22;23548;51.196;6.838;2023-06-04T01:33:00;13.60;58.80
37702;DHT22;23548;51.196;6.838;2023-06-04T01:35:27;13.50;58.80
37702;DHT22;23548;51.196;6.838;2023-06-04T01:37:53;13.50;58.90
37702;DHT22;23548;51.196;6.838;2023-06-04T01:40:20;13.50;59.10
37702;DHT22;23548;51.196;6.838;2023-06-04T01:42:46;13.50;59.50
37702;DHT22;23548;51.196;6.838;2023-06-04T01:45:12;13.40;59.80
37702;DHT22;23548;51.196;6.838;2023-06-04T01:47:38;13.40;60.40
37702;DHT22;23548;51.196;6.838;2023-06-04T01:50:25;13.30;61.70
37702;DHT22;23548;51.196;6.838;2023-06-04T01:52:51;13.20;61.50
37702;DHT22;23548;51.196;6.838;2023-06-04T01:55:17;13.20;62.70
37702;DHT22;23548;51.196;6.838;2023-06-04T01:57:45;13.10;62.80
37702;DHT22;23548;51.196;6.838;2023-06-04T02:00:12;13.00;63.60
37702;DHT22;23548;51.196;6.838;2023-06-04T02:02:39;13.00;63.50
37702;DHT22;23548;51.196;6.838;2023-06-04T02:05:08;13.00;63.90
37702;DHT22;23548;51.196;6.838;2023-06-04T02:07:35;13.00;64.20
37702;DHT22;23548;51.196;6.838;2023-06-04T02:10:07;12.90;63.80
37702;DHT22;23548;51.196;6.838;2023-06-04T02:12:33;12.90;64.00
37702;DHT22;23548;51.196;6.838;2023-06-04T02:14:58;12.90;64.30
37702;DHT22;23548;51.196;6.838;2023-06-04T02:17:24;12.90;64.50
37702;DHT22;23548;51.196;6.838;2023-06-04T02:19:50;13.00;64.30
37702;DHT22;23548;51.196;6.838;2023-06-04T02:22:17;13.00;64.20
37702;DHT22;23548;51.196;6.838;2023-06-04T02:24:43;13.00;64.90
37702;DHT22;23548;51.196;6.838;2023-06-04T02:27:10;13.00;64.90
37702;DHT22;23548;51.196;6.838;2023-06-04T02:29:37;12.90;65.30
37702;DHT22;23548;51.196;6.838;2023-06-04T02:32:03;12.80;65.30
37702;DHT22;23548;51.196;6.838;2023-06-04T02:34:29;12.80;65.70
37702;DHT22;23548;51.196;6.838;2023-06-04T02:36:55;12.80;66.80
37702;DHT22;23548;51.196;6.838;2023-06-04T02:39:22;12.80;67.10
37702;DHT22;23548;51.196;6.838;2023-06-04T02:41:47;12.70;67.30
37702;DHT22;23548;51.196;6.838;2023-06-04T02:44:13;12.60;67.10
37702;DHT22;23548;51.196;6.838;2023-06-04T02:46:39;12.60;67.20
37702;DHT22;23548;51.196;6.838;2023-06-04T02:49:05;12.60;68.00
37702;DHT22;23548;51.196;6.838;2023-06-04T02:51:31;12.60;69.00
37702;DHT22;23548;51.196;6.838;2023-06-04T02:53:58;12.50;69.40
37702;DHT22;23548;51.196;6.838;2023-06-04T02:56:24;12.50;70.40
37702;DHT22;23548;51.196;6.838;2023-06-04T02:58:52;12.40;70.60
37702;DHT22;23548;51.196;6.838;2023-06-04T03:01:22;12.30;70.70
37702;DHT22;23548;51.196;6.838;2023-06-04T03:03:49;12.30;71.10
37702;DHT22;23548;51.196;6.838;2023-06-04T03:06:16;12.30;71.60
37702;DHT22;23548;51.196;6.838;2023-06-04T03:08:42;12.20;71.80
37702;DHT22;23548;51.196;6.838;2023-06-04T03:11:08;12.20;72.90
37702;DHT22;23548;51.196;6.838;2023-06-04T03:13:35;12.20;72.80
37702;DHT22;23548;51.196;6.838;2023-06-04T03:16:01;12.20;71.70
37702;DHT22;23548;51.196;6.838;2023-06-04T03:18:30;12.20;73.20
37702;DHT22;23548;51.196;6.838;2023-06-04T03:20:56;12.20;72.40
37702;DHT22;23548;51.196;6.838;2023-06-04T03:23:22;12.20;71.70
37702;DHT22;23548;51.196;6.838;2023-06-04T03:25:48;12.20;71.80
37702;DHT22;23548;51.196;6.838;2023-06-04T03:28:13;12.20;71.90
37702;DHT22;23548;51.196;6.838;2023-06-04T03:30:40;12.20;72.70
37702;DHT22;23548;51.196;6.838;2023-06-04T03:33:07;12.20;72.70
37702;DHT22;23548;51.196;6.838;2023-06-04T03:35:33;12.30;72.90
37702;DHT22;23548;51.196;6.838;2023-06-04T03:37:58;12.30;72.40
37702;DHT22;23548;51.196;6.838;2023-06-04T03:40:24;12.30;72.80
37702;DHT22;23548;51.196;6.838;2023-06-04T03:42:50;12.20;72.50
37702;DHT22;23548;51.196;6.838;2023-06-04T03:45:16;12.20;72.60
37702;DHT22;23548;51.196;6.838;2023-06-04T03:47:41;12.20;72.40
37702;DHT22;23548;51.196;6.838;2023-06-04T03:50:07;12.30;72.60
37702;DHT22;23548;51.196;6.838;2023-06-04T03:52:33;12.30;73.00
37702;DHT22;23548;51.196;6.838;2023-06-04T03:54:59;12.30;72.90
37702;DHT22;23548;51.196;6.838;2023-06-04T03:57:25;12.30;72.90
37702;DHT22;23548;51.196;6.838;2023-06-04T03:59:51;12.40;72.30
37702;DHT22;23548;51.196;6.838;2023-06-04T04:02:17;12.40;72.20
37702;DHT22;23548;51.196;6.838;2023-06-04T04:04:44;12.50;71.80
37702;DHT22;23548;51.196;6.838;2023-06-04T04:07:10;12.60;71.70
37702;DHT22;23548;51.196;6.838;2023-06-04T04:09:36;12.70;71.10
37702;DHT22;23548;51.196;6.838;2023-06-04T04:12:04;12.80;70.60
37702;DHT22;23548;51.196;6.838;2023-06-04T04:14:30;12.80;70.00
37702;DHT22;23548;51.196;6.838;2023-06-04T04:16:56;12.80;70.00
37702;DHT22;23548;51.196;6.838;2023-06-04T04:19:22;12.90;69.80
37702;DHT22;23548;51.196;6.838;2023-06-04T04:21:48;12.90;69.90
37702;DHT22;23548;51.196;6.838;2023-06-04T04:24:27;12.90;69.60
37702;DHT22;23548;51.196;6.838;2023-06-04T04:26:53;12.90;69.70
37702;DHT22;23548;51.196;6.838;2023-06-04T04:29:23;13.00;69.50
37702;DHT22;23548;51.196;6.838;2023-06-04T04:31:50;13.10;69.60
37702;DHT22;23548;51.196;6.838;2023-06-04T04:34:16;13.10;69.60
37702;DHT22;23548;51.196;6.838;2023-06-04T04:36:43;13.10;68.50
37702;DHT22;23548;51.196;6.838;2023-06-04T04:39:10;13.20;68.60
37702;DHT22;23548;51.196;6.838;2023-06-04T04:41:37;13.30;69.40
37702;DHT22;23548;51.196;6.838;2023-06-04T04:44:03;13.30;69.20
37702;DHT22;23548;51.196;6.838;2023-06-04T04:46:30;13.40;68.20
37702;DHT22;23548;51.196;6.838;2023-06-04T04:48:56;13.40;68.40
37702;DHT22;23548;51.196;6.838;2023-06-04T04:51:21;13.50;67.90
37702;DHT22;23548;51.196;6.838;2023-06-04T04:53:47;13.60;67.60
37702;DHT22;23548;51.196;6.838;2023-06-04T04:56:13;13.70;67.60
37702;DHT22;23548;51.196;6.838;2023-06-04T04:58:39;13.70;68.00
37702;DHT22;23548;51.196;6.838;2023-06-04T05:01:05;13.80;66.90
37702;DHT22;23548;51.196;6.838;2023-06-04T05:03:31;13.90;67.40
37702;DHT22;23548;51.196;6.838;2023-06-04T05:05:56;13.90;68.10
37702;DHT22;23548;51.196;6.838;2023-06-04T05:08:22;14.00;67.80
37702;DHT22;23548;51.196;6.838;2023-06-04T05:10:50;14.10;67.00
37702;DHT22;23548;51.196;6.838;2023-06-04T05:13:16;14.10;66.00
37702;DHT22;23548;51.196;6.838;2023-06-04T05:15:43;14.20;66.10
37702;DHT22;23548;51.196;6.838;2023-06-04T05:18:08;14.20;66.30
37702;DHT22;23548;51.196;6.838;2023-06-04T05:20:34;14.30;66.70
37702;DHT22;23548;51.196;6.838;2023-06-04T05:23:03;14.40;66.00
37702;DHT22;23548;51.196;6.838;2023-06-04T05:25:29;14.60;66.00
37702;DHT22;23548;51.196;6.838;2023-06-04T05:27:58;14.70;65.00
37702;DHT22;23548;51.196;6.838;2023-06-04T05:30:24;14.80;65.70
37702;DHT22;23548;51.196;6.838;2023-06-04T05:32:50;14.90;66.30
37702;DHT22;23548;51.196;6.838;2023-06-04T05:35:16;15.00;63.40
37702;DHT22;23548;51.196;6.838;2023-06-04T05:37:42;15.10;63.70
37702;DHT22;23548;51.196;6.838;2023-06-04T05:40:11;15.10;62.70
37702;DHT22;23548;51.196;6.838;2023-06-04T05:42:38;15.20;63.40
37702;DHT22;23548;51.196;6.838;2023-06-04T05:45:05;15.30;62.90
37702;DHT22;23548;51.196;6.838;2023-06-04T05:47:33;15.40;63.50
37702;DHT22;23548;51.196;6.838;2023-06-04T05:49:59;15.50;61.60
37702;DHT22;23548;51.196;6.838;2023-06-04T05:52:25;15.50;60.50
37702;DHT22;23548;51.196;6.838;2023-06-04T05:54:51;15.60;60.60
37702;DHT22;23548;51.196;6.838;2023-06-04T05:57:16;15.70;59.90
37702;DHT22;23548;51.196;6.838;2023-06-04T05:59:42;15.90;60.40
37702;DHT22;23548;51.196;6.838;2023-06-04T06:02:08;16.00;60.90
37702;DHT22;23548;51.196;6.838;2023-06-04T06:04:34;15.90;60.00
37702;DHT22;23548;51.196;6.838;2023-06-04T06:07:00;16.10;59.60
37702;DHT22;23548;51.196;6.838;2023-06-04T06:09:25;16.20;59.40
37702;DHT22;23548;51.196;6.838;2023-06-04T06:11:51;16.30;59.70
37702;DHT22;23548;51.196;6.838;2023-06-04T06:14:17;16.30;59.60
37702;DHT22;23548;51.196;6.838;2023-06-04T06:16:42;16.40;58.90
37702;DHT22;23548;51.196;6.838;2023-06-04T06:19:08;16.50;59.80
37702;DHT22;23548;51.196;6.838;2023-06-04T06:21:34;16.60;58.60
37702;DHT22;23548;51.196;6.838;2023-06-04T06:24:00;16.80;59.50
37702;DHT22;23548;51.196;6.838;2023-06-04T06:26:25;16.80;57.00
37702;DHT22;23548;51.196;6.838;2023-06-04T06:28:51;16.80;57.30
37702;DHT22;23548;51.196;6.838;2023-06-04T06:31:17;16.90;57.30
37702;DHT22;23548;51.196;6.838;2023-06-04T06:33:43;17.00;57.40
37702;DHT22;23548;51.196;6.838;2023-06-04T06:36:12;17.10;57.40
37702;DHT22;23548;51.196;6.838;2023-06-04T06:38:38;17.20;57.50
37702;DHT22;23548;51.196;6.838;2023-06-04T06:41:04;17.40;57.90
37702;DHT22;23548;51.196;6.838;2023-06-04T06:43:30;17.40;57.10
37702;DHT22;23548;51.196;6.838;2023-06-04T06:45:57;17.60;56.70
37702;DHT22;23548;51.196;6.838;2023-06-04T06:48:23;17.80;56.70
37702;DHT22;23548;51.196;6.838;2023-06-04T06:50:49;17.80;55.70
37702;DHT22;23548;51.196;6.838;2023-06-04T06:53:14;17.80;56.30
37702;DHT22;23548;51.196;6.838;2023-06-04T06:55:40;17.80;56.30
37702;DHT22;23548;51.196;6.838;2023-06-04T06:58:06;17.90;56.00
37702;DHT22;23548;51.196;6.838;2023-06-04T07:00:32;18.00;56.70
37702;DHT22;23548;51.196;6.838;2023-06-04T07:02:58;18.20;56.70
37702;DHT22;23548;51.196;6.838;2023-06-04T07:05:24;18.20;55.90
37702;DHT22;23548;51.196;6.838;2023-06-04T07:07:50;18.20;57.00
37702;DHT22;23548;51.196;6.838;2023-06-04T07:10:16;18.30;56.00
37702;DHT22;23548;51.196;6.838;2023-06-04T07:12:41;18.40;55.20
37702;DHT22;23548;51.196;6.838;2023-06-04T07:15:07;18.60;56.80
37702;DHT22;23548;51.196;6.838;2023-06-04T07:17:36;18.70;55.30
37702;DHT22;23548;51.196;6.838;2023-06-04T07:20:02;18.80;56.10
37702;DHT22;23548;51.196;6.838;2023-06-04T07:22:32;18.80;55.10
37702;DHT22;23548;51.196;6.838;2023-06-04T07:24:58;18.90;54.80
37702;DHT22;23548;51.196;6.838;2023-06-04T07:27:23;19.00;54.80
37702;DHT22;23548;51.196;6.838;2023-06-04T07:29:50;19.00;53.90
37702;DHT22;23548;51.196;6.838;2023-06-04T07:32:15;19.10;53.60
37702;DHT22;23548;51.196;6.838;2023-06-04T07:34:41;19.20;53.80
37702;DHT22;23548;51.196;6.838;2023-06-04T07:37:07;19.30;53.40
37702;DHT22;23548;51.196;6.838;2023-06-04T07:39:34;19.40;54.50
37702;DHT22;23548;51.196;6.838;2023-06-04T07:42:01;19.50;52.80
37702;DHT22;23548;51.196;6.838;2023-06-04T07:44:26;19.60;53.50
37702;DHT22;23548;51.196;6.838;2023-06-04T07:46:52;19.70;53.60
37702;DHT22;23548;51.196;6.838;2023-06-04T07:49:18;19.80;53.00
37702;DHT22;23548;51.196;6.838;2023-06-04T07:51:43;19.80;53.50
37702;DHT22;23548;51.196;6.838;2023-06-04T07:54:09;19.70;53.10
37702;DHT22;23548;51.196;6.838;2023-06-04T07:56:35;19.80;52.80
37702;DHT22;23548;51.196;6.838;2023-06-04T07:59:01;19.80;51.40
37702;DHT22;23548;51.196;6.838;2023-06-04T08:01:27;19.80;52.10
37702;DHT22;23548;51.196;6.838;2023-06-04T08:03:53;19.70;52.10
37702;DHT22;23548;51.196;6.838;2023-06-04T08:06:19;19.80;53.00
37702;DHT22;23548;51.196;6.838;2023-06-04T08:08:45;19.90;51.10
37702;DHT22;23548;51.196;6.838;2023-06-04T08:11:14;20.00;51.20
37702;DHT22;23548;51.196;6.838;2023-06-04T08:13:40;20.00;50.90
37702;DHT22;23548;51.196;6.838;2023-06-04T08:16:06;20.20;52.50
37702;DHT22;23548;51.196;6.838;2023-06-04T08:18:33;20.30;51.50
37702;DHT22;23548;51.196;6.838;2023-06-04T08:20:58;20.30;48.70
37702;DHT22;23548;51.196;6.838;2023-06-04T08:23:24;20.30;51.70
37702;DHT22;23548;51.196;6.838;2023-06-04T08:25:50;20.40;49.40
37702;DHT22;23548;51.196;6.838;2023-06-04T08:28:16;20.40;47.80
37702;DHT22;23548;51.196;6.838;2023-06-04T08:30:45;20.30;48.30
37702;DHT22;23548;51.196;6.838;2023-06-04T08:33:11;20.50;48.90
37702;DHT22;23548;51.196;6.838;2023-06-04T08:35:37;20.50;49.80
37702;DHT22;23548;51.196;6.838;2023-06-04T08:38:03;20.60;48.90
37702;DHT22;23548;51.196;6.838;2023-06-04T08:40:29;20.60;48.50
37702;DHT22;23548;51.196;6.838;2023-06-04T08:42:56;20.70;48.90
37702;DHT22;23548;51.196;6.838;2023-06-04T08:45:24;20.70;49.70
37702;DHT22;23548;51.196;6.838;2023-06-04T08:47:51;20.60;47.90
37702;DHT22;23548;51.196;6.838;2023-06-04T08:50:19;20.60;47.30
37702;DHT22;23548;51.196;6.838;2023-06-04T08:52:45;20.60;46.10
37702;DHT22;23548;51.196;6.838;2023-06-04T08:55:12;20.50;47.70
37702;DHT22;23548;51.196;6.838;2023-06-04T08:57:39;20.70;48.00
37702;DHT22;23548;51.196;6.838;2023-06-04T09:00:07;20.80;49.00
37702;DHT22;23548;51.196;6.838;2023-06-04T09:02:37;20.90;50.80
37702;DHT22;23548;51.196;6.838;2023-06-04T09:05:06;20.90;48.90
37702;DHT22;23548;51.196;6.838;2023-06-04T09:07:39;20.80;48.40
37702;DHT22;23548;51.196;6.838;2023-06-04T09:10:07;20.80;46.70
37702;DHT22;23548;51.196;6.838;2023-06-04T09:12:36;20.90;47.40
37702;DHT22;23548;51.196;6.838;2023-06-04T09:15:02;21.00;48.50
37702;DHT22;23548;51.196;6.838;2023-06-04T09:17:29;20.90;48.50
37702;DHT22;23548;51.196;6.838;2023-06-04T09:19:55;20.90;48.80
37702;DHT22;23548;51.196;6.838;2023-06-04T09:22:35;21.00;49.10
37702;DHT22;23548;51.196;6.838;2023-06-04T09:25:04;21.00;48.90
37702;DHT22;23548;51.196;6.838;2023-06-04T09:27:39;21.20;47.50
37702;DHT22;23548;51.196;6.838;2023-06-04T09:30:06;21.20;46.70
37702;DHT22;23548;51.196;6.838;2023-06-04T09:32:34;21.20;48.80
37702;DHT22;23548;51.196;6.838;2023-06-04T09:35:16;21.40;45.40
37702;DHT22;23548;51.196;6.838;2023-06-04T09:37:53;21.30;46.20
37702;DHT22;23548;51.196;6.838;2023-06-04T09:40:19;21.20;45.20
37702;DHT22;23548;51.196;6.838;2023-06-04T09:42:46;21.30;46.70
37702;DHT22;23548;51.196;6.838;2023-06-04T09:45:35;21.50;46.40
37702;DHT22;23548;51.196;6.838;2023-06-04T09:48:02;21.50;46.20
37702;DHT22;23548;51.196;6.838;2023-06-04T09:50:32;21.50;47.40
37702;DHT22;23548;51.196;6.838;2023-06-04T09:53:18;21.60;46.90
37702;DHT22;23548;51.196;6.838;2023-06-04T09:55:58;21.60;47.50
37702;DHT22;23548;51.196;6.838;2023-06-04T09:58:28;21.70;47.30
37702;DHT22;23548;51.196;6.838;2023-06-04T10:00:59;21.40;46.20
37702;DHT22;23548;51.196;6.838;2023-06-04T10:03:25;21.50;47.70
37702;DHT22;23548;51.196;6.838;2023-06-04T10:05:59;21.60;45.70
37702;DHT22;23548;51.196;6.838;2023-06-04T10:08:30;21.60;45.90
37702;DHT22;23548;51.196;6.838;2023-06-04T10:10:59;21.60;45.80
37702;DHT22;23548;51.196;6.838;2023-06-04T10:13:30;21.80;45.80
37702;DHT22;23548;51.196;6.838;2023-06-04T10:15:58;21.80;45.40
37702;DHT22;23548;51.196;6.838;2023-06-04T10:18:24;21.80;45.10
37702;DHT22;23548;51.196;6.838;2023-06-04T10:20:55;21.90;46.40
37702;DHT22;23548;51.196;6.838;2023-06-04T10:23:22;21.80;46.40
37702;DHT22;23548;51.196;6.838;2023-06-04T10:25:51;21.80;45.80
37702;DHT22;23548;51.196;6.838;2023-06-04T10:28:22;21.90;45.30
37702;DHT22;23548;51.196;6.838;2023-06-04T10:30:49;21.90;45.80
37702;DHT22;23548;51.196;6.838;2023-06-04T10:33:18;21.80;44.80
37702;DHT22;23548;51.196;6.838;2023-06-04T10:35:45;21.90;46.40
37702;DHT22;23548;51.196;6.838;2023-06-04T10:38:12;22.00;45.20
37702;DHT22;23548;51.196;6.838;2023-06-04T10:40:42;21.90;44.60
37702;DHT22;23548;51.196;6.838;2023-06-04T10:43:12;22.00;45.30
37702;DHT22;23548;51.196;6.838;2023-06-04T10:45:39;22.00;46.00
37702;DHT22;23548;51.196;6.838;2023-06-04T10:48:07;22.20;44.60
37702;DHT22;23548;51.196;6.838;2023-06-04T10:50:34;22.10;45.10
37702;DHT22;23548;51.196;6.838;2023-06-04T10:53:00;22.20;45.60
37702;DHT22;23548;51.196;6.838;2023-06-04T10:55:29;22.30;46.30
37702;DHT22;23548;51.196;6.838;2023-06-04T11:00:34;22.10;44.50
37702;DHT22;23548;51.196;6.838;2023-06-04T11:03:01;22.10;45.50
37702;DHT22;23548;51.196;6.838;2023-06-04T11:05:37;22.10;44.90
37702;DHT22;23548;51.196;6.838;2023-06-04T11:08:04;22.20;45.40
37702;DHT22;23548;51.196;6.838;2023-06-04T11:10:36;22.20;44.60
37702;DHT22;23548;51.196;6.838;2023-06-04T11:13:03;22.30;45.60
37702;DHT22;23548;51.196;6.838;2023-06-04T11:18:05;22.40;43.60
37702;DHT22;23548;51.196;6.838;2023-06-04T11:20:31;22.50;44.20
37702;DHT22;23548;51.196;6.838;2023-06-04T11:22:58;22.60;44.30
37702;DHT22;23548;51.196;6.838;2023-06-04T11:25:30;22.60;45.00
37702;DHT22;23548;51.196;6.838;2023-06-04T11:27:58;22.70;43.80
37702;DHT22;23548;51.196;6.838;2023-06-04T11:30:25;22.90;44.10
37702;DHT22;23548;51.196;6.838;2023-06-04T11:33:03;22.80;43.70
37702;DHT22;23548;51.196;6.838;2023-06-04T11:35:29;22.70;43.80
37702;DHT22;23548;51.196;6.838;2023-06-04T11:37:56;22.60;43.80
37702;DHT22;23548;51.196;6.838;2023-06-04T11:40:23;22.70;43.50
37702;DHT22;23548;51.196;6.838;2023-06-04T11:42:49;22.90;45.10
37702;DHT22;23548;51.196;6.838;2023-06-04T11:45:17;22.90;42.60
37702;DHT22;23548;51.196;6.838;2023-06-04T11:47:55;22.90;42.30
37702;DHT22;23548;51.196;6.838;2023-06-04T11:50:23;22.90;41.90
37702;DHT22;23548;51.196;6.838;2023-06-04T11:52:49;22.90;42.10
37702;DHT22;23548;51.196;6.838;2023-06-04T11:55:15;23.10;42.10
37702;DHT22;23548;51.196;6.838;2023-06-04T11:57:48;23.10;42.90
37702;DHT22;23548;51.196;6.838;2023-06-04T12:00:16;23.30;41.40
37702;DHT22;23548;51.196;6.838;2023-06-04T12:02:55;23.20;42.50
37702;DHT22;23548;51.196;6.838;2023-06-04T12:05:23;23.00;41.70
37702;DHT22;23548;51.196;6.838;2023-06-04T12:07:50;23.10;40.60
37702;DHT22;23548;51.196;6.838;2023-06-04T12:10:17;23.10;41.50
37702;DHT22;23548;51.196;6.838;2023-06-04T12:12:43;23.10;41.70
37702;DHT22;23548;51.196;6.838;2023-06-04T12:15:09;23.30;40.10
37702;DHT22;23548;51.196;6.838;2023-06-04T12:17:36;23.40;40.80
37702;DHT22;23548;51.196;6.838;2023-06-04T12:20:05;23.60;41.70
37702;DHT22;23548;51.196;6.838;2023-06-04T12:22:32;23.90;40.90
37702;DHT22;23548;51.196;6.838;2023-06-04T12:24:57;24.00;40.70
37702;DHT22;23548;51.196;6.838;2023-06-04T12:27:26;24.20;41.30
37702;DHT22;23548;51.196;6.838;2023-06-04T12:30:02;24.10;40.90
37702;DHT22;23548;51.196;6.838;2023-06-04T12:32:29;23.80;41.10
37702;DHT22;23548;51.196;6.838;2023-06-04T12:34:55;23.80;37.80
37702;DHT22;23548;51.196;6.838;2023-06-04T12:37:22;23.90;38.30
37702;DHT22;23548;51.196;6.838;2023-06-04T12:39:48;23.90;37.80
37702;DHT22;23548;51.196;6.838;2023-06-04T12:42:14;24.10;39.20
37702;DHT22;23548;51.196;6.838;2023-06-04T12:44:40;24.10;39.50
37702;DHT22;23548;51.196;6.838;2023-06-04T12:47:07;24.10;37.40
37702;DHT22;23548;51.196;6.838;2023-06-04T12:49:33;24.10;39.70
37702;DHT22;23548;51.196;6.838;2023-06-04T12:51:59;24.10;38.20
37702;DHT22;23548;51.196;6.838;2023-06-04T12:54:26;24.30;39.90
37702;DHT22;23548;51.196;6.838;2023-06-04T12:56:53;24.40;37.10
37702;DHT22;23548;51.196;6.838;2023-06-04T12:59:21;24.20;37.00
37702;DHT22;23548;51.196;6.838;2023-06-04T13:01:46;24.30;38.40
37702;DHT22;23548;51.196;6.838;2023-06-04T13:04:12;24.40;37.70
37702;DHT22;23548;51.196;6.838;2023-06-04T13:06:38;24.50;36.70
37702;DHT22;23548;51.196;6.838;2023-06-04T13:09:05;24.50;36.00
37702;DHT22;23548;51.196;6.838;2023-06-04T13:11:41;24.50;36.80
37702;DHT22;23548;51.196;6.838;2023-06-04T13:14:08;24.70;37.20
37702;DHT22;23548;51.196;6.838;2023-06-04T13:16:33;24.50;37.10
37702;DHT22;23548;51.196;6.838;2023-06-04T13:18:59;25.00;40.30
37702;DHT22;23548;51.196;6.838;2023-06-04T13:21:25;25.10;36.90
37702;DHT22;23548;51.196;6.838;2023-06-04T13:23:51;25.20;38.20
37702;DHT22;23548;51.196;6.838;2023-06-04T13:26:17;26.80;36.40
37702;DHT22;23548;51.196;6.838;2023-06-04T13:28:43;28.80;32.50
37702;DHT22;23548;51.196;6.838;2023-06-04T13:31:09;30.00;31.70
37702;DHT22;23548;51.196;6.838;2023-06-04T13:33:35;30.90;29.90
37702;DHT22;23548;51.196;6.838;2023-06-04T13:36:05;30.90;28.80
37702;DHT22;23548;51.196;6.838;2023-06-04T13:38:32;30.50;28.90
37702;DHT22;23548;51.196;6.838;2023-06-04T13:40:58;30.70;29.40
37702;DHT22;23548;51.196;6.838;2023-06-04T13:43:23;30.50;29.60
37702;DHT22;23548;51.196;6.838;2023-06-04T13:45:49;30.70;29.50
37702;DHT22;23548;51.196;6.838;2023-06-04T13:48:15;31.10;29.10
37702;DHT22;23548;51.196;6.838;2023-06-04T13:50:42;31.20;28.80
37702;DHT22;23548;51.196;6.838;2023-06-04T13:53:08;31.30;29.50
37702;DHT22;23548;51.196;6.838;2023-06-04T13:55:34;31.90;29.50
37702;DHT22;23548;51.196;6.838;2023-06-04T13:58:00;32.50;27.80
37702;DHT22;23548;51.196;6.838;2023-06-04T14:00:26;32.10;28.10
37702;DHT22;23548;51.196;6.838;2023-06-04T14:02:52;32.20;28.20
37702;DHT22;23548;51.196;6.838;2023-06-04T14:05:21;31.70;28.20
37702;DHT22;23548;51.196;6.838;2023-06-04T14:07:47;31.50;28.40
37702;DHT22;23548;51.196;6.838;2023-06-04T14:10:13;32.10;28.30
37702;DHT22;23548;51.196;6.838;2023-06-04T14:12:40;32.30;28.30
37702;DHT22;23548;51.196;6.838;2023-06-04T14:15:07;32.80;27.70
37702;DHT22;23548;51.196;6.838;2023-06-04T14:17:39;33.90;27.40
37702;DHT22;23548;51.196;6.838;2023-06-04T14:20:06;34.90;26.00
37702;DHT22;23548;51.196;6.838;2023-06-04T14:22:37;33.40;27.20
37702;DHT22;23548;51.196;6.838;2023-06-04T14:25:07;33.20;27.50
37702;DHT22;23548;51.196;6.838;2023-06-04T14:27:33;33.70;27.10
37702;DHT22;23548;51.196;6.838;2023-06-04T14:30:00;34.10;27.10
37702;DHT22;23548;51.196;6.838;2023-06-04T14:32:26;34.00;27.00
37702;DHT22;23548;51.196;6.838;2023-06-04T14:34:52;33.90;27.30
37702;DHT22;23548;51.196;6.838;2023-06-04T14:37:17;33.40;27.00
37702;DHT22;23548;51.196;6.838;2023-06-04T14:39:45;33.60;27.90
37702;DHT22;23548;51.196;6.838;2023-06-04T14:42:11;33.70;26.90
37702;DHT22;23548;51.196;6.838;2023-06-04T14:44:37;33.70;27.00
37702;DHT22;23548;51.196;6.838;2023-06-04T14:47:02;32.90;27.30
37702;DHT22;23548;51.196;6.838;2023-06-04T14:49:28;33.20;27.20
37702;DHT22;23548;51.196;6.838;2023-06-04T14:51:54;33.30;27.00
37702;DHT22;23548;51.196;6.838;2023-06-04T14:54:20;33.00;27.10
37702;DHT22;23548;51.196;6.838;2023-06-04T14:56:46;33.00;27.20
37702;DHT22;23548;51.196;6.838;2023-06-04T14:59:11;34.00;26.70
37702;DHT22;23548;51.196;6.838;2023-06-04T15:01:42;34.00;26.90
37702;DHT22;23548;51.196;6.838;2023-06-04T15:04:07;33.80;27.20
37702;DHT22;23548;51.196;6.838;2023-06-04T15:06:33;33.00;27.40
37702;DHT22;23548;51.196;6.838;2023-06-04T15:08:59;32.10;27.30
37702;DHT22;23548;51.196;6.838;2023-06-04T15:11:25;32.70;27.40
37702;DHT22;23548;51.196;6.838;2023-06-04T15:13:52;33.20;26.40
37702;DHT22;23548;51.196;6.838;2023-06-04T15:16:19;33.20;27.00
37702;DHT22;23548;51.196;6.838;2023-06-04T15:18:48;33.60;26.40
37702;DHT22;23548;51.196;6.838;2023-06-04T15:21:14;32.80;27.10
37702;DHT22;23548;51.196;6.838;2023-06-04T15:23:40;32.90;27.00
37702;DHT22;23548;51.196;6.838;2023-06-04T15:26:08;33.60;27.20
37702;DHT22;23548;51.196;6.838;2023-06-04T15:28:34;34.70;26.40
37702;DHT22;23548;51.196;6.838;2023-06-04T15:30:59;34.80;25.80
37702;DHT22;23548;51.196;6.838;2023-06-04T15:33:25;35.50;25.40
37702;DHT22;23548;51.196;6.838;2023-06-04T15:35:51;35.90;25.30
37702;DHT22;23548;51.196;6.838;2023-06-04T15:38:17;35.10;25.40
37702;DHT22;23548;51.196;6.838;2023-06-04T15:40:43;34.80;26.30
37702;DHT22;23548;51.196;6.838;2023-06-04T15:43:08;34.50;26.00